createdAt,value
2022-12-29T00:02:13.272Z,100174.85
2022-12-29T00:04:40.103Z,100176.67
2022-12-29T00:07:07.176Z,100176.53
2022-12-29T00:09:34.365Z,100174.67
2022-12-29T00:12:02.819Z,100170.83
2022-12-29T00:14:47.775Z,100171.42
2022-12-29T00:17:14.877Z,100157.30
2022-12-29T00:19:59.643Z,100151.08
2022-12-29T00:22:45.318Z,100159.15
2022-12-29T00:25:31.490Z,100163.06
2022-12-29T00:28:17.474Z,100164.64
2022-12-29T00:31:03.269Z,100155.51
2022-12-29T00:33:50.856Z,100153.09
2022-12-29T00:36:25.391Z,100144.46
2022-12-29T00:39:14.480Z,100142.64
2022-12-29T00:41:59.692Z,100129.56
2022-12-29T00:44:26.281Z,100130.52
2022-12-29T00:46:52.660Z,100124.15
2022-12-29T00:49:31.318Z,100123.52
2022-12-29T00:52:06.449Z,100117.89
2022-12-29T00:54:37.671Z,100115.77
2022-12-29T00:57:06.573Z,100115.24
2022-12-29T00:59:35.781Z,100117.14
2022-12-29T01:02:02.460Z,100110.77
2022-12-29T01:04:29.393Z,100110.06
2022-12-29T01:06:56.037Z,100107.83
2022-12-29T01:09:41.112Z,100100.48
2022-12-29T01:12:09.193Z,100101.81
2022-12-29T01:14:35.900Z,100101.58
2022-12-29T01:17:02.213Z,100106.27
2022-12-29T01:19:29.314Z,100103.33
2022-12-29T01:21:55.632Z,100098.46
2022-12-29T01:24:22.172Z,100097.74
2022-12-29T01:26:49.184Z,100097.05
2022-12-29T01:29:15.708Z,100093.05
2022-12-29T01:31:42.141Z,100092.98
2022-12-29T01:34:08.724Z,100092.50
2022-12-29T01:36:35.117Z,100097.65
2022-12-29T01:39:01.431Z,100095.61
2022-12-29T01:41:28.344Z,100092.31
2022-12-29T01:43:59.529Z,100093.52
2022-12-29T01:46:31.692Z,100088.84
2022-12-29T01:49:08.240Z,100087.44
2022-12-29T01:51:39.435Z,100083.10
2022-12-29T01:54:13.622Z,100076.64
2022-12-29T01:56:40.261Z,100069.60
2022-12-29T01:59:12.312Z,100065.48
2022-12-29T02:01:38.902Z,100066.13
2022-12-29T02:04:05.607Z,100059.84
2022-12-29T02:06:33.611Z,100054.77
2022-12-29T02:09:01.354Z,100046.61
2022-12-29T02:11:29.753Z,100041.99
2022-12-29T02:13:57.334Z,100046.45
2022-12-29T02:17:01.354Z,100045.31
2022-12-29T02:19:46.032Z,100042.20
2022-12-29T02:22:38.912Z,100041.02
2022-12-29T02:25:43.726Z,100039.38
2022-12-29T02:28:47.714Z,100035.84
2022-12-29T02:31:39.502Z,100031.42
2022-12-29T02:34:24.688Z,100034.95
2022-12-29T02:37:20.643Z,100032.23
2022-12-29T02:39:54.447Z,100026.91
2022-12-29T02:43:05.435Z,100016.77
2022-12-29T02:45:37.465Z,100017.07
2022-12-29T02:48:25.959Z,100010.45
2022-12-29T02:51:01.342Z,100013.27
2022-12-29T02:53:48.306Z,100011.88
2022-12-29T02:56:14.785Z,100013.20
2022-12-29T02:58:41.802Z,99999.98
2022-12-29T03:01:10.835Z,100002.23
2022-12-29T03:04:02.324Z,100004.83
2022-12-29T03:06:53.428Z,100004.78
2022-12-29T03:09:28.817Z,99999.45
2022-12-29T03:12:13.478Z,99996.08
2022-12-29T03:15:10.002Z,99996.81
2022-12-29T03:17:57.743Z,99988.90
2022-12-29T03:20:27.748Z,99990.01
2022-12-29T03:23:01.006Z,99985.80
2022-12-29T03:25:32.728Z,99992.30
2022-12-29T03:28:02.404Z,99998.46
2022-12-29T03:30:30.389Z,100000.70
2022-12-29T03:33:00.181Z,100002.80
2022-12-29T03:35:30.313Z,100007.58
2022-12-29T03:38:00.644Z,99998.72
2022-12-29T03:40:28.329Z,100001.50
2022-12-29T03:42:55.703Z,100007.05
2022-12-29T03:45:22.186Z,100013.84
2022-12-29T03:47:48.569Z,100005.00
2022-12-29T03:50:15.040Z,100009.12
2022-12-29T03:52:41.498Z,100012.68
2022-12-29T03:55:08.391Z,100011.99
2022-12-29T03:57:35.062Z,100012.84
2022-12-29T04:00:02.163Z,100012.86
2022-12-29T04:02:29.082Z,100009.33
2022-12-29T04:04:56.197Z,100010.90
2022-12-29T04:07:22.591Z,100006.89
2022-12-29T04:09:49.219Z,99997.45
2022-12-29T04:12:15.989Z,99989.63
2022-12-29T04:14:42.334Z,99988.73
2022-12-29T04:17:08.726Z,99988.88
2022-12-29T04:19:35.208Z,99978.36
2022-12-29T04:22:01.628Z,99972.77
2022-12-29T04:24:28.168Z,99969.70
2022-12-29T04:26:54.630Z,99969.92
2022-12-29T04:29:21.056Z,99967.07
2022-12-29T04:31:47.760Z,99957.42
2022-12-29T04:34:14.806Z,99957.23
2022-12-29T04:36:41.202Z,99955.67
2022-12-29T04:39:07.663Z,99957.92
2022-12-29T04:41:34.499Z,99954.88
2022-12-29T04:44:00.885Z,99955.90
2022-12-29T04:46:27.353Z,99954.36
2022-12-29T04:48:54.040Z,99950.89
2022-12-29T04:51:20.400Z,99954.46
2022-12-29T04:53:46.765Z,99954.22
2022-12-29T04:56:13.407Z,99955.44
2022-12-29T04:58:39.837Z,99949.10
2022-12-29T05:01:06.241Z,99949.54
2022-12-29T05:03:32.907Z,99948.89
2022-12-29T05:05:59.535Z,99953.17
2022-12-29T05:08:28.273Z,99951.67
2022-12-29T05:10:55.194Z,99943.78
2022-12-29T05:13:21.864Z,99941.84
2022-12-29T05:15:51.141Z,99942.87
2022-12-29T05:18:18.177Z,99937.38
2022-12-29T05:20:44.773Z,99933.30
2022-12-29T05:23:11.428Z,99928.02
2022-12-29T05:25:38.100Z,99927.04
2022-12-29T05:28:06.085Z,99927.36
2022-12-29T05:30:32.608Z,99918.63
2022-12-29T05:32:59.265Z,99916.40
2022-12-29T05:35:25.627Z,99915.50
2022-12-29T05:37:52.202Z,99912.11
2022-12-29T05:40:18.958Z,99910.27
2022-12-29T05:42:45.304Z,99910.10
2022-12-29T05:45:11.722Z,99907.48
2022-12-29T05:47:38.699Z,99904.48
2022-12-29T05:50:05.227Z,99904.91
2022-12-29T05:52:31.569Z,99907.81
2022-12-29T05:54:58.239Z,99910.39
2022-12-29T05:57:24.547Z,99913.30
2022-12-29T05:59:50.938Z,99914.05
2022-12-29T06:02:17.792Z,99912.07
2022-12-29T06:04:44.215Z,99913.48
2022-12-29T06:07:10.536Z,99910.66
2022-12-29T06:09:37.335Z,99912.64
2022-12-29T06:12:03.976Z,99907.34
2022-12-29T06:14:30.546Z,99914.38
2022-12-29T06:16:57.254Z,99912.13
2022-12-29T06:19:23.631Z,99907.99
2022-12-29T06:21:49.989Z,99910.15
2022-12-29T06:24:16.598Z,99908.80
2022-12-29T06:26:42.963Z,99904.94
2022-12-29T06:29:09.579Z,99905.84
2022-12-29T06:31:36.332Z,99903.17
2022-12-29T06:34:08.111Z,99898.02
2022-12-29T06:36:35.438Z,99900.40
2022-12-29T06:39:01.949Z,99906.73
2022-12-29T06:41:32.211Z,99912.41
2022-12-29T06:43:59.208Z,99914.84
2022-12-29T06:46:26.120Z,99915.88
2022-12-29T06:48:52.675Z,99914.09
2022-12-29T06:51:19.203Z,99917.29
2022-12-29T06:53:45.877Z,99917.81
2022-12-29T06:56:12.200Z,99916.33
2022-12-29T06:58:38.634Z,99915.22
2022-12-29T07:01:05.375Z,99914.12
2022-12-29T07:03:31.845Z,99914.98
2022-12-29T07:05:58.451Z,99920.09
2022-12-29T07:08:25.226Z,99920.99
2022-12-29T07:10:51.658Z,99919.83
2022-12-29T07:13:18.059Z,99924.54
2022-12-29T07:15:44.699Z,99923.45
2022-12-29T07:18:11.212Z,99921.48
2022-12-29T07:20:37.593Z,99923.73
2022-12-29T07:23:04.261Z,99920.27
2022-12-29T07:25:30.933Z,99920.64
2022-12-29T07:27:57.323Z,99912.99
2022-12-29T07:30:25.558Z,99911.88
2022-12-29T07:32:52.081Z,99918.56
2022-12-29T07:35:18.854Z,99918.36
2022-12-29T07:37:45.353Z,99918.36
2022-12-29T07:40:13.122Z,99917.50
2022-12-29T07:42:39.641Z,99914.63
2022-12-29T07:45:06.382Z,99916.24
2022-12-29T07:47:32.793Z,99911.83
2022-12-29T07:49:59.287Z,99916.50
2022-12-29T07:52:25.739Z,99915.29
2022-12-29T07:54:52.367Z,99910.92
2022-12-29T07:57:19.000Z,99913.46
2022-12-29T07:59:45.702Z,99913.25
2022-12-29T08:02:12.505Z,99912.61
2022-12-29T08:04:39.451Z,99911.39
2022-12-29T08:07:06.100Z,99917.77
2022-12-29T08:09:32.537Z,99922.00
2022-12-29T08:11:59.206Z,99923.92
2022-12-29T08:14:25.874Z,99926.41
2022-12-29T08:16:52.220Z,99920.23
2022-12-29T08:19:18.703Z,99919.98
2022-12-29T08:21:45.542Z,99923.09
2022-12-29T08:24:11.849Z,99924.08
2022-12-29T08:26:39.086Z,99928.48
2022-12-29T08:29:05.778Z,99925.33
2022-12-29T08:31:32.217Z,99926.65
2022-12-29T08:34:00.275Z,99924.30
2022-12-29T08:36:27.081Z,99925.28
2022-12-29T08:38:53.528Z,99918.02
2022-12-29T08:41:19.885Z,99913.26
2022-12-29T08:43:47.677Z,99913.63
2022-12-29T08:46:14.275Z,99916.80
2022-12-29T08:48:40.662Z,99924.90
2022-12-29T08:51:08.042Z,99927.35
2022-12-29T08:53:34.873Z,99931.69
2022-12-29T08:56:05.028Z,99930.90
2022-12-29T08:58:32.514Z,99936.17
2022-12-29T09:00:59.299Z,99938.91
2022-12-29T09:03:54.527Z,99938.89
2022-12-29T09:06:12.811Z,99942.80
2022-12-29T09:08:39.277Z,99936.53
2022-12-29T09:11:11.623Z,99934.71
2022-12-29T09:13:38.720Z,99932.73
2022-12-29T09:16:05.926Z,99926.63
2022-12-29T09:18:32.666Z,99938.90
2022-12-29T09:21:00.945Z,99940.90
2022-12-29T09:23:27.711Z,99936.67
2022-12-29T09:25:54.698Z,99941.30
2022-12-29T09:28:22.434Z,99944.27
2022-12-29T09:30:49.382Z,99952.86
2022-12-29T09:33:15.967Z,99952.50
2022-12-29T09:35:51.311Z,99953.45
2022-12-29T09:38:18.197Z,99950.47
2022-12-29T09:40:49.759Z,99952.43
2022-12-29T09:43:41.902Z,99944.45
2022-12-29T09:46:27.616Z,99949.00
2022-12-29T09:49:18.275Z,99939.86
2022-12-29T09:51:49.163Z,99929.89
2022-12-29T09:54:32.560Z,99922.50
2022-12-29T09:56:59.539Z,99916.91
2022-12-29T09:59:42.646Z,99911.58
2022-12-29T10:02:24.675Z,99913.23
2022-12-29T10:04:51.476Z,99913.95
2022-12-29T10:07:31.204Z,99911.85
2022-12-29T10:10:11.289Z,99910.95
2022-12-29T10:12:59.366Z,99910.97
2022-12-29T10:16:05.880Z,99907.38
2022-12-29T10:18:57.771Z,99908.75
2022-12-29T10:21:54.722Z,99909.98
2022-12-29T10:24:22.320Z,99902.77
2022-12-29T10:26:52.063Z,99898.46
2022-12-29T10:29:21.444Z,99897.77
2022-12-29T10:32:00.678Z,99894.35
2022-12-29T10:34:46.368Z,99884.58
2022-12-29T10:37:43.456Z,99878.67
2022-12-29T10:40:19.784Z,99878.41
2022-12-29T10:42:52.615Z,99883.15
2022-12-29T10:45:19.838Z,99883.40
2022-12-29T10:47:56.923Z,99881.15
2022-12-29T10:50:25.397Z,99875.45
2022-12-29T10:52:52.226Z,99877.27
2022-12-29T10:55:33.593Z,99882.77
2022-12-29T10:58:05.733Z,99881.19
2022-12-29T11:00:33.332Z,99879.71
2022-12-29T11:03:35.690Z,99882.95
2022-12-29T11:06:09.558Z,99874.60
2022-12-29T11:08:39.159Z,99879.61
2022-12-29T11:11:08.796Z,99874.61
2022-12-29T11:13:47.962Z,99870.10
2022-12-29T11:16:14.574Z,99866.87
2022-12-29T11:18:42.953Z,99866.57
2022-12-29T11:21:33.970Z,99857.79
2022-12-29T11:24:05.031Z,99857.48
2022-12-29T11:26:34.786Z,99856.52
2022-12-29T11:29:05.158Z,99847.17
2022-12-29T11:31:32.213Z,99844.77
2022-12-29T11:33:58.599Z,99844.14
2022-12-29T11:36:25.409Z,99840.65
2022-12-29T11:38:53.482Z,99844.08
2022-12-29T11:41:28.508Z,99842.69
2022-12-29T11:44:00.959Z,99843.06
2022-12-29T11:46:30.937Z,99839.88
2022-12-29T11:49:00.019Z,99840.45
2022-12-29T11:51:37.329Z,99840.41
2022-12-29T11:54:05.288Z,99838.29
2022-12-29T11:56:41.238Z,99836.20
2022-12-29T11:59:27.236Z,99837.84
2022-12-29T12:01:55.041Z,99833.83
2022-12-29T12:04:23.997Z,99834.58
2022-12-29T12:07:02.829Z,99835.52
2022-12-29T12:09:33.146Z,99831.80
2022-12-29T12:12:00.175Z,99828.63
2022-12-29T12:14:38.004Z,99825.98
2022-12-29T12:17:10.686Z,99821.91
2022-12-29T12:19:55.497Z,99815.61
2022-12-29T12:22:38.026Z,99816.56
2022-12-29T12:25:18.955Z,99820.94
2022-12-29T12:27:49.682Z,99819.35
2022-12-29T12:30:19.948Z,99817.76
2022-12-29T12:32:55.609Z,99818.81
2022-12-29T12:35:41.139Z,99818.42
2022-12-29T12:38:10.471Z,99820.36
2022-12-29T12:41:26.022Z,99813.40
2022-12-29T12:44:07.816Z,99813.82
2022-12-29T12:46:50.636Z,99814.09
2022-12-29T12:49:34.660Z,99811.30
2022-12-29T12:52:27.783Z,99811.86
2022-12-29T12:55:25.199Z,99810.75
2022-12-29T12:58:06.693Z,99811.86
2022-12-29T13:00:41.170Z,99809.34
2022-12-29T13:03:19.930Z,99812.28
2022-12-29T13:06:12.218Z,99814.77
2022-12-29T13:08:57.834Z,99816.55
2022-12-29T13:11:33.614Z,99820.39
2022-12-29T13:14:06.826Z,99822.23
2022-12-29T13:16:45.108Z,99818.38
2022-12-29T13:19:24.802Z,99819.52
2022-12-29T13:22:06.576Z,99817.52
2022-12-29T13:24:56.237Z,99812.44
2022-12-29T13:27:37.188Z,99815.95
2022-12-29T13:30:17.758Z,99815.09
2022-12-29T13:33:43.092Z,99817.88
2022-12-29T13:37:05.105Z,99821.92
2022-12-29T13:39:41.526Z,99835.02
2022-12-29T13:42:09.655Z,99829.94
2022-12-29T13:44:40.488Z,99844.29
2022-12-29T13:47:22.152Z,99849.81
2022-12-29T13:49:49.131Z,99854.55
2022-12-29T13:52:43.927Z,99858.09
2022-12-29T13:55:53.603Z,99855.17
2022-12-29T13:58:35.280Z,99861.66
2022-12-29T14:01:11.151Z,99859.31
2022-12-29T14:03:45.729Z,99856.05
2022-12-29T14:06:25.777Z,99850.48
2022-12-29T14:09:04.855Z,99853.23
2022-12-29T14:11:32.624Z,99848.55
2022-12-29T14:14:00.126Z,99845.84
2022-12-29T14:16:27.771Z,99843.85
2022-12-29T14:18:57.598Z,99848.20
2022-12-29T14:21:29.924Z,99847.88
2022-12-29T14:24:48.830Z,99847.13
2022-12-29T14:27:15.790Z,99852.73
2022-12-29T14:29:42.279Z,99853.84
2022-12-29T14:32:26.971Z,99855.44
2022-12-29T14:34:55.246Z,99853.77
2022-12-29T14:37:26.806Z,99849.79
2022-12-29T14:40:19.575Z,99852.91
2022-12-29T14:42:47.159Z,99858.40
2022-12-29T14:45:13.787Z,99865.30
2022-12-29T14:47:47.233Z,99863.20
2022-12-29T14:50:26.039Z,99861.65
2022-12-29T14:52:58.453Z,99862.11
2022-12-29T14:55:46.736Z,99865.97
2022-12-29T14:58:18.018Z,99863.68
2022-12-29T15:00:44.944Z,99862.83
2022-12-29T15:03:21.531Z,99867.83
2022-12-29T15:06:11.506Z,99862.16
2022-12-29T15:08:41.137Z,99859.53
2022-12-29T15:11:37.019Z,99856.69
2022-12-29T15:14:03.629Z,99862.14
2022-12-29T15:16:31.820Z,99860.84
2022-12-29T15:18:58.877Z,99860.33
2022-12-29T15:21:30.976Z,99863.39
2022-12-29T15:23:57.782Z,99867.70
2022-12-29T15:26:24.282Z,99866.91
2022-12-29T15:28:53.221Z,99869.22
2022-12-29T15:31:30.110Z,99869.27
2022-12-29T15:34:10.467Z,99874.84
2022-12-29T15:36:38.766Z,99874.64
2022-12-29T15:39:31.596Z,99877.68
2022-12-29T15:42:20.040Z,99871.78
2022-12-29T15:44:46.802Z,99872.75
2022-12-29T15:47:20.081Z,99879.13
2022-12-29T15:49:51.425Z,99883.11
2022-12-29T15:52:21.009Z,99883.33
2022-12-29T15:54:50.126Z,99884.12
2022-12-29T15:57:28.555Z,99888.33
2022-12-29T15:59:55.511Z,99884.05
2022-12-29T16:02:25.854Z,99884.29
2022-12-29T16:07:52.861Z,99882.79
2022-12-29T16:10:40.992Z,99883.39
2022-12-29T16:13:24.890Z,99882.27
2022-12-29T16:15:57.199Z,99881.11
2022-12-29T16:18:35.711Z,99884.32
2022-12-29T16:21:06.866Z,99886.40
2022-12-29T16:23:36.825Z,99891.45
2022-12-29T16:26:04.386Z,99891.02
2022-12-29T16:28:42.356Z,99891.80
2022-12-29T16:31:18.433Z,99893.61
2022-12-29T16:33:46.572Z,99889.02
2022-12-29T16:36:33.560Z,99885.83
2022-12-29T16:39:22.467Z,99883.93
2022-12-29T16:41:50.540Z,99884.69
2022-12-29T16:44:31.076Z,99887.95
2022-12-29T16:47:02.385Z,99893.27
2022-12-29T16:49:30.696Z,99891.84
2022-12-29T16:51:57.304Z,99892.19
2022-12-29T16:54:36.292Z,99895.84
2022-12-29T16:57:02.961Z,99897.95
2022-12-29T16:59:33.502Z,99901.98
2022-12-29T17:02:02.790Z,99904.02
2022-12-29T17:04:29.684Z,99900.40
2022-12-29T17:06:56.307Z,99903.25
2022-12-29T17:09:28.036Z,99900.48
2022-12-29T17:12:05.034Z,99902.47
2022-12-29T17:14:44.482Z,99906.05
2022-12-29T17:17:17.120Z,99910.80
2022-12-29T17:19:51.652Z,99912.85
2022-12-29T17:22:26.856Z,99911.30
2022-12-29T17:24:54.472Z,99910.45
2022-12-29T17:27:25.868Z,99912.45
2022-12-29T17:29:53.626Z,99910.46
2022-12-29T17:32:20.642Z,99910.77
2022-12-29T17:34:47.156Z,99913.89
2022-12-29T17:37:35.315Z,99915.84
2022-12-29T17:40:04.104Z,99913.35
2022-12-29T17:42:34.194Z,99914.00
2022-12-29T17:45:01.399Z,99912.52
2022-12-29T17:47:28.035Z,99915.41
2022-12-29T17:49:54.657Z,99917.84
2022-12-29T17:52:22.741Z,99920.52
2022-12-29T17:54:51.822Z,99919.65
2022-12-29T17:57:19.470Z,99923.67
2022-12-29T17:59:46.203Z,99932.67
2022-12-29T18:02:26.619Z,99931.80
2022-12-29T18:04:53.671Z,99933.35
2022-12-29T18:07:20.332Z,99932.27
2022-12-29T18:09:46.734Z,99939.79
2022-12-29T18:12:43.397Z,99941.58
2022-12-29T18:15:19.498Z,99945.30
2022-12-29T18:17:46.102Z,99953.92
2022-12-29T18:20:12.653Z,99953.02
2022-12-29T18:22:39.318Z,99956.27
2022-12-29T18:25:20.889Z,99953.65
2022-12-29T18:27:47.717Z,99958.49
2022-12-29T18:30:14.325Z,99956.84
2022-12-29T18:32:40.710Z,99958.92
2022-12-29T18:35:28.615Z,99956.54
2022-12-29T18:37:55.211Z,99959.64
2022-12-29T18:40:22.030Z,99959.86
2022-12-29T18:42:48.515Z,99956.73
2022-12-29T18:45:18.745Z,99954.97
2022-12-29T18:47:45.601Z,99957.67
2022-12-29T18:50:12.805Z,99953.15
2022-12-29T18:52:39.692Z,99955.02
2022-12-29T18:55:16.480Z,99958.87
2022-12-29T18:57:43.066Z,99959.59
2022-12-29T19:00:10.967Z,99954.99
2022-12-29T19:02:37.574Z,99948.45
2022-12-29T19:05:08.000Z,99948.08
2022-12-29T19:07:35.320Z,99945.89
2022-12-29T19:10:01.935Z,99936.28
2022-12-29T19:12:28.687Z,99937.15
2022-12-29T19:14:55.542Z,99942.05
2022-12-29T19:17:22.049Z,99945.80
2022-12-29T19:19:48.465Z,99941.62
2022-12-29T19:22:15.181Z,99943.67
2022-12-29T19:24:41.840Z,99947.14
2022-12-29T19:27:08.726Z,99947.09
2022-12-29T19:29:35.395Z,99942.44
2022-12-29T19:32:02.068Z,99947.55
2022-12-29T19:34:28.491Z,99944.38
2022-12-29T19:36:56.387Z,99944.45
2022-12-29T19:39:23.463Z,99944.91
2022-12-29T19:41:49.993Z,99942.80
2022-12-29T19:44:16.764Z,99945.43
2022-12-29T19:46:43.582Z,99945.41
2022-12-29T19:49:10.201Z,99949.11
2022-12-29T19:51:37.194Z,99951.06
2022-12-29T19:54:03.793Z,99952.88
2022-12-29T19:56:30.774Z,99946.46
2022-12-29T19:58:57.783Z,99941.34
2022-12-29T20:01:25.605Z,99948.80
2022-12-29T20:03:52.405Z,99950.55
2022-12-29T20:06:19.045Z,99958.20
2022-12-29T20:08:45.736Z,99962.39
2022-12-29T20:11:14.885Z,99960.05
2022-12-29T20:13:42.364Z,99956.48
2022-12-29T20:16:15.027Z,99963.19
2022-12-29T20:18:42.413Z,99964.80
2022-12-29T20:21:18.367Z,99968.79
2022-12-29T20:23:45.723Z,99970.14
2022-12-29T20:26:17.764Z,99975.03
2022-12-29T20:28:44.329Z,99974.43
2022-12-29T20:31:15.625Z,99971.02
2022-12-29T20:33:42.781Z,99977.14
2022-12-29T20:36:21.428Z,99981.98
2022-12-29T20:38:49.406Z,99993.92
2022-12-29T20:41:16.937Z,99992.13
2022-12-29T20:43:43.441Z,99999.23
2022-12-29T20:46:11.201Z,100002.22
2022-12-29T20:48:37.947Z,100002.56
2022-12-29T20:51:04.513Z,100002.59
2022-12-29T20:53:32.814Z,100000.23
2022-12-29T20:56:10.717Z,100001.02
2022-12-29T20:58:52.658Z,100002.06
2022-12-29T21:01:24.997Z,99999.74
2022-12-29T21:03:51.862Z,99994.27
2022-12-29T21:06:19.306Z,99996.39
2022-12-29T21:08:45.925Z,99991.71
2022-12-29T21:11:12.562Z,99996.07
2022-12-29T21:13:38.992Z,99996.61
2022-12-29T21:16:07.514Z,99993.41
2022-12-29T21:18:34.573Z,99991.89
2022-12-29T21:21:06.992Z,99990.60
2022-12-29T21:23:33.537Z,99990.56
2022-12-29T21:26:00.312Z,99995.58
2022-12-29T21:28:26.912Z,99996.89
2022-12-29T21:30:53.596Z,99991.46
2022-12-29T21:33:20.896Z,99993.77
2022-12-29T21:35:47.814Z,99995.20
2022-12-29T21:38:14.697Z,100001.18
2022-12-29T21:40:41.399Z,100004.38
2022-12-29T21:43:10.304Z,100009.89
2022-12-29T21:45:36.724Z,100015.19
2022-12-29T21:48:22.696Z,100013.05
2022-12-29T21:51:10.427Z,100014.40
2022-12-29T21:53:39.193Z,100015.90
2022-12-29T21:56:17.258Z,100016.14
2022-12-29T21:59:07.483Z,100013.88
2022-12-29T22:01:55.028Z,100012.52
2022-12-29T22:04:42.771Z,100010.34
2022-12-29T22:07:29.605Z,100006.41
2022-12-29T22:10:15.104Z,99998.45
2022-12-29T22:13:02.736Z,100002.75
2022-12-29T22:15:34.363Z,99997.55
2022-12-29T22:18:01.390Z,99995.70
2022-12-29T22:20:31.116Z,99992.59
2022-12-29T22:22:58.701Z,99992.30
2022-12-29T22:25:25.493Z,99987.38
2022-12-29T22:27:58.555Z,99981.51
2022-12-29T22:30:27.632Z,99972.88
2022-12-29T22:32:54.365Z,99974.08
2022-12-29T22:35:20.721Z,99976.66
2022-12-29T22:37:47.371Z,99974.42
2022-12-29T22:40:14.264Z,99980.94
2022-12-29T22:42:40.691Z,99988.28
2022-12-29T22:45:07.584Z,99985.82
2022-12-29T22:47:34.355Z,99979.52
2022-12-29T22:50:00.656Z,99980.38
2022-12-29T22:52:27.371Z,99976.20
2022-12-29T22:54:54.269Z,99981.93
2022-12-29T22:57:20.625Z,99982.96
2022-12-29T22:59:47.149Z,99978.89
2022-12-29T23:02:13.852Z,99981.22
2022-12-29T23:05:02.960Z,99983.02
2022-12-29T23:07:27.080Z,99978.60
2022-12-29T23:09:53.473Z,99973.95
2022-12-29T23:12:19.812Z,99980.20
2022-12-29T23:14:46.605Z,99987.31
2022-12-29T23:17:12.999Z,99983.20
2022-12-29T23:19:39.408Z,99983.32
2022-12-29T23:22:06.074Z,99981.89
2022-12-29T23:24:32.441Z,99973.63
2022-12-29T23:26:58.824Z,99979.27
2022-12-29T23:29:25.599Z,99982.23
2022-12-29T23:31:52.071Z,99985.27
2022-12-29T23:34:18.576Z,99992.20
2022-12-29T23:36:46.000Z,99994.72
2022-12-29T23:39:18.034Z,99990.95
2022-12-29T23:41:44.493Z,99986.45
2022-12-29T23:44:11.374Z,99995.90
2022-12-29T23:46:37.829Z,99992.18
2022-12-29T23:49:04.168Z,99999.30
2022-12-29T23:51:31.173Z,100002.29
2022-12-29T23:53:57.553Z,100006.13
2022-12-29T23:56:24.057Z,100010.34
2022-12-29T23:58:51.163Z,100014.70
